DLH452 EDDM-KLAX
Flight info
| Callsign | DLH452 |
|---|---|
| Flight time | N/A |
| Altitude | 34000 |
| Route | INPUD2N INPUD Y102 UPALA Z109 BAMAS L604 GASKA DCT MASEK DCT BIGGE L604 RELBI L602 TENLI DCT MIMVA DCT GETNO DCT LUTOV DCT PIKIL/M083F360 DCT 57N020W 57N030W 57N040W 56N050W DCT JANJO/N0477F360 DCT DENSO DCT AGLOL/N0490F380 DCT MERNU DCT XEXUL DCT BLUOX DCT RAP J158 DDY J107 OCS/N0480F400 J107 NORRA J100 LAS Q70 HAILO DCT KOPLE BOGET2 |
| Aircraft | A388/J-SADE2E3GHIJ3J4J5LM1OP2RWXYZ/LB1D1 |
Departure
| Time | 2026-05-04 00:39 |
|---|---|
| Airport | Munich Airport (EDDM) |
Arrival
| Time | N/A |
|---|---|
| Airport | Los Angeles International Airport (KLAX) |
| Time | Latitude | Longitude | Altitude | Speed | Heading |
|---|---|---|---|---|---|
| 2026-05-04 00:02 | 48.35468 | 11.79728 | 1490 ft | 0 kts | 83° |
| 2026-05-04 00:26 | 48.35467 | 11.79713 | 1466 ft | 4 kts | 83° |
| 2026-05-04 00:26 | 48.35464 | 11.79673 | 1459 ft | 4 kts | 83° |
| 2026-05-04 00:26 | 48.35461 | 11.79641 | 1475 ft | 4 kts | 78° |
| 2026-05-04 00:27 | 48.35452 | 11.79610 | 1475 ft | 4 kts | 48° |
| 2026-05-04 00:27 | 48.35437 | 11.79595 | 1475 ft | 4 kts | 9° |
| 2026-05-04 00:27 | 48.35415 | 11.79597 | 1475 ft | 4 kts | 353° |
| 2026-05-04 00:27 | 48.35390 | 11.79601 | 1475 ft | 2 kts | 353° |
| 2026-05-04 00:28 | 48.35389 | 11.79601 | 1475 ft | 1 kts | 353° |
| 2026-05-04 00:31 | 48.35406 | 11.79598 | 1475 ft | 5 kts | 353° |
| 2026-05-04 00:31 | 48.35457 | 11.79589 | 1475 ft | 10 kts | 353° |
| 2026-05-04 00:31 | 48.35534 | 11.79576 | 1480 ft | 12 kts | 353° |
| 2026-05-04 00:31 | 48.35618 | 11.79561 | 1483 ft | 13 kts | 353° |
| 2026-05-04 00:32 | 48.35706 | 11.79546 | 1478 ft | 13 kts | 353° |
| 2026-05-04 00:32 | 48.35799 | 11.79530 | 1478 ft | 14 kts | 353° |
| 2026-05-04 00:32 | 48.35894 | 11.79513 | 1483 ft | 14 kts | 353° |
| 2026-05-04 00:32 | 48.35993 | 11.79496 | 1484 ft | 14 kts | 353° |
| 2026-05-04 00:33 | 48.36091 | 11.79490 | 1480 ft | 13 kts | 25° |
| 2026-05-04 00:33 | 48.36125 | 11.79727 | 1481 ft | 15 kts | 84° |
| 2026-05-04 00:33 | 48.36137 | 11.79892 | 1478 ft | 17 kts | 83° |
| 2026-05-04 00:34 | 48.36151 | 11.80076 | 1477 ft | 18 kts | 83° |
| 2026-05-04 00:34 | 48.36166 | 11.80274 | 1477 ft | 20 kts | 83° |
| 2026-05-04 00:34 | 48.36183 | 11.80483 | 1485 ft | 21 kts | 83° |
| 2026-05-04 00:34 | 48.36200 | 11.80700 | 1490 ft | 21 kts | 83° |
| 2026-05-04 00:35 | 48.36218 | 11.80923 | 1484 ft | 22 kts | 83° |
| 2026-05-04 00:35 | 48.36235 | 11.81150 | 1479 ft | 22 kts | 83° |
| 2026-05-04 00:35 | 48.36253 | 11.81381 | 1483 ft | 23 kts | 83° |
| 2026-05-04 00:35 | 48.36271 | 11.81617 | 1488 ft | 23 kts | 83° |
| 2026-05-04 00:36 | 48.36289 | 11.81852 | 1484 ft | 23 kts | 83° |
| 2026-05-04 00:36 | 48.36306 | 11.82069 | 1484 ft | 16 kts | 83° |
| 2026-05-04 00:36 | 48.36365 | 11.82154 | 1478 ft | 12 kts | 352° |
| 2026-05-04 00:36 | 48.36453 | 11.82137 | 1483 ft | 13 kts | 353° |
| 2026-05-04 00:37 | 48.36545 | 11.82122 | 1478 ft | 14 kts | 354° |
| 2026-05-04 00:37 | 48.36635 | 11.82087 | 1478 ft | 13 kts | 328° |
| 2026-05-04 00:37 | 48.36680 | 11.82008 | 1476 ft | 7 kts | 268° |
| 2026-05-04 00:37 | 48.36678 | 11.81976 | 1481 ft | 0 kts | 263° |
| 2026-05-04 00:38 | 48.36678 | 11.81975 | 1481 ft | 0 kts | 263° |
| 2026-05-04 00:38 | 48.36676 | 11.81946 | 1482 ft | 12 kts | 264° |
| 2026-05-04 00:38 | 48.36641 | 11.81495 | 1480 ft | 79 kts | 263° |
| 2026-05-04 00:39 | 48.36553 | 11.80361 | 1483 ft | 136 kts | 263° |
| 2026-05-04 00:39 | 48.36428 | 11.78765 | 1514 ft | 167 kts | 263° |
| 2026-05-04 00:39 | 48.36298 | 11.77023 | 1943 ft | 166 kts | 263° |
| 2026-05-04 00:39 | 48.36163 | 11.75290 | 2345 ft | 170 kts | 265° |
| 2026-05-04 00:40 | 48.36013 | 11.73487 | 2681 ft | 176 kts | 268° |
| 2026-05-04 00:40 | 48.35854 | 11.71650 | 2995 ft | 181 kts | 268° |
| 2026-05-04 00:40 | 48.35697 | 11.69745 | 3189 ft | 186 kts | 269° |
| 2026-05-04 00:40 | 48.35871 | 11.67833 | 3295 ft | 187 kts | 298° |
| 2026-05-04 00:41 | 48.36653 | 11.66300 | 3482 ft | 186 kts | 323° |
| 2026-05-04 00:41 | 48.37824 | 11.65383 | 3627 ft | 195 kts | 345° |
| 2026-05-04 00:41 | 48.39183 | 11.65026 | 3781 ft | 202 kts | 349° |
| 2026-05-04 00:41 | 48.40619 | 11.64636 | 3906 ft | 220 kts | 348° |
| 2026-05-04 00:42 | 48.42172 | 11.64188 | 4225 ft | 236 kts | 348° |
| 2026-05-04 00:42 | 48.43844 | 11.63676 | 4490 ft | 255 kts | 347° |
| 2026-05-04 00:42 | 48.45618 | 11.63129 | 5001 ft | 263 kts | 348° |
| 2026-05-04 00:42 | 48.47408 | 11.62589 | 5578 ft | 269 kts | 347° |
| 2026-05-04 00:43 | 48.49269 | 11.62035 | 6108 ft | 276 kts | 347° |
| 2026-05-04 00:43 | 48.51188 | 11.61465 | 6597 ft | 285 kts | 347° |
| 2026-05-04 00:43 | 48.53138 | 11.60891 | 7233 ft | 286 kts | 347° |
| 2026-05-04 00:43 | 48.55101 | 11.60314 | 7808 ft | 290 kts | 347° |
| 2026-05-04 00:44 | 48.57092 | 11.59680 | 8382 ft | 294 kts | 341° |
| 2026-05-04 00:44 | 48.59013 | 11.58618 | 8974 ft | 296 kts | 335° |
| 2026-05-04 00:44 | 48.60941 | 11.57477 | 9559 ft | 300 kts | 336° |
| 2026-05-04 00:44 | 48.62901 | 11.56341 | 10125 ft | 303 kts | 336° |
| 2026-05-04 00:45 | 48.64910 | 11.55182 | 10402 ft | 317 kts | 336° |
| 2026-05-04 00:45 | 48.67024 | 11.53958 | 10559 ft | 333 kts | 336° |
| 2026-05-04 00:45 | 48.69241 | 11.52675 | 10726 ft | 348 kts | 336° |
| 2026-05-04 00:45 | 48.71524 | 11.51357 | 11155 ft | 353 kts | 336° |
| 2026-05-04 00:46 | 48.73829 | 11.50027 | 11670 ft | 356 kts | 336° |
| 2026-05-04 00:46 | 48.76151 | 11.48683 | 12198 ft | 358 kts | 336° |
| 2026-05-04 00:46 | 48.78486 | 11.47328 | 12717 ft | 361 kts | 336° |
| 2026-05-04 00:46 | 48.80839 | 11.45961 | 13247 ft | 364 kts | 336° |
| 2026-05-04 00:47 | 48.83212 | 11.44581 | 13748 ft | 367 kts | 336° |
| 2026-05-04 00:47 | 48.85603 | 11.43190 | 14229 ft | 369 kts | 336° |
| 2026-05-04 00:47 | 48.88009 | 11.41787 | 14710 ft | 371 kts | 336° |
| 2026-05-04 00:47 | 48.90424 | 11.40378 | 15181 ft | 373 kts | 336° |
| 2026-05-04 00:48 | 48.92849 | 11.38961 | 15667 ft | 375 kts | 336° |
| 2026-05-04 00:48 | 48.95287 | 11.37535 | 16132 ft | 376 kts | 336° |
| 2026-05-04 00:48 | 48.97741 | 11.36098 | 16583 ft | 379 kts | 337° |
| 2026-05-04 00:48 | 49.00205 | 11.34654 | 17052 ft | 380 kts | 337° |
| 2026-05-04 00:49 | 49.02683 | 11.33201 | 17504 ft | 383 kts | 337° |
| 2026-05-04 00:49 | 49.05173 | 11.31738 | 17960 ft | 385 kts | 337° |
| 2026-05-04 00:49 | 49.07677 | 11.30267 | 18393 ft | 387 kts | 337° |
| 2026-05-04 00:49 | 49.10195 | 11.28784 | 18771 ft | 389 kts | 337° |
| 2026-05-04 00:50 | 49.12722 | 11.27294 | 19143 ft | 391 kts | 337° |
| 2026-05-04 00:50 | 49.15263 | 11.25795 | 19530 ft | 393 kts | 337° |
| 2026-05-04 00:50 | 49.17785 | 11.24306 | 19893 ft | 394 kts | 337° |
| 2026-05-04 00:50 | 49.20388 | 11.22786 | 20245 ft | 397 kts | 339° |
| 2026-05-04 00:51 | 49.23069 | 11.21692 | 20605 ft | 401 kts | 347° |
| 2026-05-04 00:51 | 49.25796 | 11.21019 | 20947 ft | 403 kts | 348° |
| 2026-05-04 00:51 | 49.28571 | 11.20308 | 21290 ft | 405 kts | 348° |
| 2026-05-04 00:51 | 49.31356 | 11.19573 | 21640 ft | 407 kts | 348° |
| 2026-05-04 00:52 | 49.34155 | 11.18833 | 21985 ft | 409 kts | 348° |
| 2026-05-04 00:52 | 49.36974 | 11.18089 | 22242 ft | 413 kts | 348° |
| 2026-05-04 00:52 | 49.39813 | 11.17342 | 22619 ft | 414 kts | 348° |
| 2026-05-04 00:52 | 49.42660 | 11.16594 | 22958 ft | 416 kts | 348° |
| 2026-05-04 00:53 | 49.45523 | 11.15842 | 23293 ft | 419 kts | 347° |
| 2026-05-04 00:53 | 49.48400 | 11.15085 | 23623 ft | 420 kts | 347° |
| 2026-05-04 00:53 | 49.51290 | 11.14324 | 23905 ft | 422 kts | 347° |
| 2026-05-04 00:53 | 49.54195 | 11.13558 | 24195 ft | 424 kts | 347° |
| 2026-05-04 00:54 | 49.57106 | 11.12790 | 24477 ft | 426 kts | 347° |
| 2026-05-04 00:54 | 49.60033 | 11.12016 | 24755 ft | 428 kts | 347° |
| 2026-05-04 00:54 | 49.62969 | 11.11239 | 25038 ft | 429 kts | 347° |
| 2026-05-04 00:54 | 49.65921 | 11.10457 | 25342 ft | 431 kts | 347° |
| 2026-05-04 00:55 | 49.68892 | 11.09670 | 25593 ft | 435 kts | 347° |
| 2026-05-04 00:55 | 49.71881 | 11.08876 | 25911 ft | 436 kts | 347° |
| 2026-05-04 00:55 | 49.74879 | 11.08079 | 26240 ft | 438 kts | 347° |
| 2026-05-04 00:55 | 49.77890 | 11.07278 | 26559 ft | 440 kts | 346° |
| 2026-05-04 00:56 | 49.80915 | 11.06472 | 26887 ft | 442 kts | 346° |
| 2026-05-04 00:56 | 49.83959 | 11.05651 | 27241 ft | 444 kts | 344° |
| 2026-05-04 00:56 | 49.86880 | 11.04225 | 27551 ft | 439 kts | 330° |
| 2026-05-04 00:56 | 49.89481 | 11.01834 | 27900 ft | 433 kts | 317° |
| 2026-05-04 00:57 | 49.91644 | 10.98719 | 28239 ft | 429 kts | 308° |
| 2026-05-04 00:57 | 49.93725 | 10.95292 | 28554 ft | 432 kts | 309° |
| 2026-05-04 00:57 | 49.95787 | 10.91951 | 28844 ft | 435 kts | 309° |
| 2026-05-04 00:57 | 49.97917 | 10.88510 | 29232 ft | 437 kts | 309° |
| 2026-05-04 00:58 | 49.99997 | 10.85144 | 29591 ft | 439 kts | 309° |
| 2026-05-04 00:58 | 50.02113 | 10.81708 | 29933 ft | 441 kts | 309° |
| 2026-05-04 00:58 | 50.04236 | 10.78250 | 30250 ft | 443 kts | 309° |
| 2026-05-04 00:58 | 50.06367 | 10.74774 | 30542 ft | 445 kts | 309° |
| 2026-05-04 00:59 | 50.08506 | 10.71281 | 30857 ft | 447 kts | 309° |
| 2026-05-04 00:59 | 50.10655 | 10.67770 | 31153 ft | 449 kts | 309° |
| 2026-05-04 00:59 | 50.12811 | 10.64241 | 31461 ft | 451 kts | 309° |
| 2026-05-04 00:59 | 50.14973 | 10.60699 | 31757 ft | 452 kts | 309° |
| 2026-05-04 01:00 | 50.17145 | 10.57135 | 32148 ft | 452 kts | 309° |
| 2026-05-04 01:00 | 50.19300 | 10.53595 | 32641 ft | 450 kts | 308° |
| 2026-05-04 01:00 | 50.21461 | 10.50031 | 32829 ft | 454 kts | 308° |
| 2026-05-04 01:00 | 50.23633 | 10.46451 | 33092 ft | 456 kts | 309° |
| 2026-05-04 01:01 | 50.25847 | 10.42881 | 33395 ft | 458 kts | 309° |
| 2026-05-04 01:01 | 50.28078 | 10.39312 | 33676 ft | 460 kts | 309° |
| 2026-05-04 01:01 | 50.30317 | 10.35726 | 33968 ft | 462 kts | 309° |
| 2026-05-04 01:02 | 50.34862 | 10.28402 | 34010 ft | 477 kts | 309° |
| 2026-05-04 01:02 | 50.39284 | 10.20799 | 34017 ft | 470 kts | 306° |
| 2026-05-04 01:03 | 50.43569 | 10.12982 | 33992 ft | 474 kts | 306° |
| 2026-05-04 01:03 | 50.47907 | 10.05157 | 34003 ft | 475 kts | 306° |
| 2026-05-04 01:04 | 50.52255 | 9.97336 | 34002 ft | 475 kts | 306° |
| 2026-05-04 01:04 | 50.56596 | 9.89509 | 33995 ft | 474 kts | 306° |
| 2026-05-04 01:05 | 50.60925 | 9.81676 | 34001 ft | 474 kts | 306° |
| 2026-05-04 01:05 | 50.65254 | 9.73819 | 33984 ft | 475 kts | 306° |
| 2026-05-04 01:06 | 50.69582 | 9.65941 | 33980 ft | 475 kts | 306° |
| 2026-05-04 01:06 | 50.73906 | 9.58037 | 33989 ft | 476 kts | 305° |
| 2026-05-04 01:07 | 50.78113 | 9.49978 | 33994 ft | 475 kts | 304° |
| 2026-05-04 01:07 | 50.82300 | 9.41874 | 34001 ft | 476 kts | 304° |
| 2026-05-04 01:08 | 50.86479 | 9.33806 | 33989 ft | 478 kts | 304° |
| 2026-05-04 01:08 | 50.90697 | 9.25652 | 33997 ft | 479 kts | 304° |
| 2026-05-04 01:09 | 50.94941 | 9.17422 | 34000 ft | 479 kts | 304° |
| 2026-05-04 01:09 | 50.99126 | 9.09281 | 33998 ft | 480 kts | 304° |
| 2026-05-04 01:10 | 51.03339 | 9.01055 | 34001 ft | 480 kts | 304° |
| 2026-05-04 01:10 | 51.07550 | 8.92812 | 34006 ft | 480 kts | 304° |
| 2026-05-04 01:11 | 51.11753 | 8.84556 | 34002 ft | 480 kts | 304° |
| 2026-05-04 01:11 | 51.15949 | 8.76288 | 34003 ft | 480 kts | 303° |
| 2026-05-04 01:12 | 51.20136 | 8.68010 | 34001 ft | 479 kts | 303° |
| 2026-05-04 01:12 | 51.24311 | 8.59731 | 33990 ft | 479 kts | 303° |
| 2026-05-04 01:13 | 51.28493 | 8.51411 | 33975 ft | 481 kts | 303° |
| 2026-05-04 01:13 | 51.32669 | 8.43076 | 33965 ft | 480 kts | 303° |
| 2026-05-04 01:14 | 51.36857 | 8.34749 | 33960 ft | 481 kts | 304° |
| 2026-05-04 01:14 | 51.41052 | 8.26419 | 33964 ft | 481 kts | 304° |
| 2026-05-04 01:15 | 51.45241 | 8.18065 | 33955 ft | 481 kts | 303° |
| 2026-05-04 01:15 | 51.49426 | 8.09692 | 33975 ft | 481 kts | 304° |
| 2026-05-04 01:16 | 51.53594 | 8.01319 | 33985 ft | 480 kts | 304° |
| 2026-05-04 01:16 | 51.57749 | 7.92945 | 33976 ft | 479 kts | 303° |
| 2026-05-04 01:17 | 51.61888 | 7.84575 | 33968 ft | 478 kts | 303° |
| 2026-05-04 01:17 | 51.66018 | 7.76199 | 33960 ft | 477 kts | 303° |
| 2026-05-04 01:18 | 51.70131 | 7.67829 | 33965 ft | 476 kts | 303° |
| 2026-05-04 01:18 | 51.74199 | 7.59525 | 33954 ft | 475 kts | 303° |
| 2026-05-04 01:19 | 51.78282 | 7.51161 | 33941 ft | 474 kts | 303° |
| 2026-05-04 01:19 | 51.82355 | 7.42791 | 33925 ft | 474 kts | 303° |
| 2026-05-04 01:20 | 51.85764 | 7.35765 | 33926 ft | 474 kts | 303° |
| 2026-05-04 01:20 | 51.89828 | 7.27361 | 33957 ft | 474 kts | 302° |
| 2026-05-04 01:21 | 51.93880 | 7.18958 | 33963 ft | 473 kts | 302° |
| 2026-05-04 01:21 | 51.98140 | 7.10821 | 33951 ft | 480 kts | 314° |
| 2026-05-04 01:22 | 52.03426 | 7.04116 | 33936 ft | 477 kts | 309° |
| 2026-05-04 01:22 | 52.07347 | 6.95754 | 33934 ft | 465 kts | 295° |
| 2026-05-04 01:23 | 52.10339 | 6.86481 | 33954 ft | 462 kts | 291° |
| 2026-05-04 01:23 | 52.13123 | 6.77069 | 33946 ft | 460 kts | 289° |
| 2026-05-04 01:24 | 52.15329 | 6.67353 | 33948 ft | 457 kts | 285° |
| 2026-05-04 01:24 | 52.17491 | 6.57618 | 33949 ft | 457 kts | 285° |
| 2026-05-04 01:25 | 52.19645 | 6.47885 | 33943 ft | 456 kts | 285° |
| 2026-05-04 01:25 | 52.21789 | 6.38135 | 33937 ft | 457 kts | 285° |
| 2026-05-04 01:26 | 52.23921 | 6.28382 | 33934 ft | 456 kts | 284° |
| 2026-05-04 01:26 | 52.26536 | 6.18893 | 33932 ft | 461 kts | 291° |
| 2026-05-04 01:27 | 52.29412 | 6.09548 | 33932 ft | 460 kts | 291° |
| 2026-05-04 01:27 | 52.32272 | 6.00182 | 33931 ft | 460 kts | 291° |
| 2026-05-04 01:28 | 52.35125 | 5.90810 | 33932 ft | 461 kts | 291° |
| 2026-05-04 01:28 | 52.37979 | 5.81403 | 33933 ft | 461 kts | 291° |
| 2026-05-04 01:29 | 52.40830 | 5.71964 | 33900 ft | 464 kts | 291° |
| 2026-05-04 01:29 | 52.43684 | 5.62481 | 33925 ft | 465 kts | 291° |
| 2026-05-04 01:30 | 52.46537 | 5.52964 | 33935 ft | 466 kts | 291° |
| 2026-05-04 01:30 | 52.49391 | 5.43404 | 33917 ft | 468 kts | 291° |
| 2026-05-04 01:31 | 52.52247 | 5.33801 | 33941 ft | 469 kts | 291° |
| 2026-05-04 01:31 | 52.55101 | 5.24166 | 33953 ft | 469 kts | 291° |
| 2026-05-04 01:32 | 52.57952 | 5.14505 | 33946 ft | 470 kts | 291° |
| 2026-05-04 01:32 | 52.60775 | 5.04894 | 33957 ft | 470 kts | 290° |
| 2026-05-04 01:33 | 52.63610 | 4.95206 | 33927 ft | 470 kts | 290° |
| 2026-05-04 01:33 | 52.66439 | 4.85499 | 33939 ft | 470 kts | 290° |
| 2026-05-04 01:34 | 52.69263 | 4.75767 | 33923 ft | 471 kts | 291° |
| 2026-05-04 01:34 | 52.72082 | 4.66013 | 33931 ft | 472 kts | 291° |
| 2026-05-04 01:35 | 52.74898 | 4.56230 | 33938 ft | 472 kts | 290° |
| 2026-05-04 01:35 | 52.77710 | 4.46419 | 33943 ft | 473 kts | 290° |
| 2026-05-04 01:36 | 52.80514 | 4.36597 | 33950 ft | 473 kts | 290° |
| 2026-05-04 01:36 | 52.83313 | 4.26749 | 33949 ft | 473 kts | 290° |
| 2026-05-04 01:37 | 52.86103 | 4.16893 | 33950 ft | 473 kts | 290° |
| 2026-05-04 01:37 | 52.88883 | 4.07031 | 33948 ft | 473 kts | 290° |
| 2026-05-04 01:38 | 52.91655 | 3.97153 | 33939 ft | 473 kts | 290° |
| 2026-05-04 01:38 | 52.94421 | 3.87257 | 33938 ft | 473 kts | 290° |
| 2026-05-04 01:39 | 52.97181 | 3.77337 | 33935 ft | 474 kts | 290° |
| 2026-05-04 01:39 | 52.99935 | 3.67397 | 33937 ft | 474 kts | 290° |
| 2026-05-04 01:40 | 53.02684 | 3.57435 | 33937 ft | 475 kts | 290° |
| 2026-05-04 01:40 | 53.05426 | 3.47454 | 33939 ft | 475 kts | 290° |
| 2026-05-04 01:41 | 53.08163 | 3.37454 | 33940 ft | 475 kts | 290° |
| 2026-05-04 01:41 | 53.10550 | 3.27254 | 33940 ft | 471 kts | 282° |
| 2026-05-04 01:42 | 53.12135 | 3.16716 | 33938 ft | 469 kts | 280° |
| 2026-05-04 01:42 | 53.13732 | 3.06251 | 33940 ft | 469 kts | 281° |
| 2026-05-04 01:43 | 53.15345 | 2.95637 | 33943 ft | 469 kts | 281° |
| 2026-05-04 01:43 | 53.16919 | 2.85161 | 33944 ft | 469 kts | 281° |
| 2026-05-04 01:44 | 53.18488 | 2.74600 | 33943 ft | 469 kts | 281° |
| 2026-05-04 01:44 | 53.20043 | 2.64045 | 33941 ft | 469 kts | 281° |
| 2026-05-04 01:45 | 53.21589 | 2.53484 | 33950 ft | 469 kts | 281° |
| 2026-05-04 01:45 | 53.23894 | 2.37608 | 33932 ft | 470 kts | 281° |
| 2026-05-04 01:46 | 53.25421 | 2.26996 | 33937 ft | 470 kts | 281° |
| 2026-05-04 01:46 | 53.26940 | 2.16370 | 33949 ft | 471 kts | 281° |
| 2026-05-04 01:47 | 53.28452 | 2.05720 | 33955 ft | 471 kts | 281° |
| 2026-05-04 01:47 | 53.29955 | 1.95053 | 33949 ft | 472 kts | 281° |
| 2026-05-04 01:48 | 53.31452 | 1.84364 | 33961 ft | 472 kts | 281° |
| 2026-05-04 01:48 | 53.32940 | 1.73657 | 33961 ft | 473 kts | 281° |
| 2026-05-04 01:49 | 53.34397 | 1.63099 | 33963 ft | 473 kts | 281° |
| 2026-05-04 01:49 | 53.35865 | 1.52375 | 33967 ft | 473 kts | 281° |
| 2026-05-04 01:50 | 53.37328 | 1.41625 | 33952 ft | 474 kts | 281° |
| 2026-05-04 01:50 | 53.38782 | 1.30857 | 33958 ft | 474 kts | 281° |
| 2026-05-04 01:51 | 53.40228 | 1.20064 | 33969 ft | 475 kts | 281° |
| 2026-05-04 01:51 | 53.41657 | 1.09328 | 33971 ft | 475 kts | 281° |
| 2026-05-04 01:52 | 53.43084 | 0.98512 | 33960 ft | 476 kts | 281° |
| 2026-05-04 01:52 | 53.44508 | 0.87653 | 33967 ft | 477 kts | 281° |
| 2026-05-04 01:53 | 53.45923 | 0.76771 | 33975 ft | 478 kts | 281° |
| 2026-05-04 01:53 | 53.47330 | 0.65874 | 33980 ft | 478 kts | 281° |
| 2026-05-04 01:54 | 53.48729 | 0.54952 | 33994 ft | 478 kts | 281° |
| 2026-05-04 01:54 | 53.50118 | 0.44015 | 33976 ft | 480 kts | 281° |
| 2026-05-04 01:55 | 53.51501 | 0.33053 | 33982 ft | 480 kts | 281° |
| 2026-05-04 01:55 | 53.52875 | 0.22062 | 33983 ft | 481 kts | 281° |
| 2026-05-04 01:56 | 53.54241 | 0.11056 | 33989 ft | 481 kts | 281° |
| 2026-05-04 01:56 | 53.55596 | 0.00045 | 33993 ft | 481 kts | 281° |
| 2026-05-04 01:57 | 53.56944 | -0.10994 | 33989 ft | 482 kts | 281° |
| 2026-05-04 01:57 | 53.58283 | -0.22051 | 33997 ft | 482 kts | 281° |
| 2026-05-04 01:58 | 53.59611 | -0.33113 | 33993 ft | 482 kts | 281° |
| 2026-05-04 01:58 | 53.60930 | -0.44182 | 33994 ft | 482 kts | 281° |
| 2026-05-04 01:59 | 53.62230 | -0.55187 | 34002 ft | 482 kts | 280° |
| 2026-05-04 01:59 | 53.63526 | -0.66260 | 33999 ft | 482 kts | 280° |
| 2026-05-04 02:00 | 53.64814 | -0.77351 | 34003 ft | 482 kts | 280° |
| 2026-05-04 02:00 | 53.66090 | -0.88431 | 34011 ft | 481 kts | 280° |
| 2026-05-04 02:01 | 53.67355 | -0.99523 | 34006 ft | 482 kts | 280° |
| 2026-05-04 02:01 | 53.68611 | -1.10622 | 34001 ft | 482 kts | 281° |
| 2026-05-04 02:02 | 53.69855 | -1.21718 | 33999 ft | 482 kts | 280° |
| 2026-05-04 02:02 | 53.71090 | -1.32828 | 33998 ft | 482 kts | 280° |
| 2026-05-04 02:03 | 53.72316 | -1.43950 | 34004 ft | 482 kts | 280° |
| 2026-05-04 02:03 | 53.73530 | -1.55073 | 34003 ft | 482 kts | 280° |
| 2026-05-04 02:04 | 53.74735 | -1.66224 | 33998 ft | 483 kts | 281° |
| 2026-05-04 02:04 | 53.75933 | -1.77391 | 34001 ft | 483 kts | 281° |
| 2026-05-04 02:05 | 53.77121 | -1.88570 | 34018 ft | 484 kts | 280° |
| 2026-05-04 02:05 | 53.78298 | -1.99765 | 34022 ft | 484 kts | 280° |
| 2026-05-04 02:06 | 53.79464 | -2.10960 | 34003 ft | 484 kts | 281° |
| 2026-05-04 02:06 | 53.80616 | -2.22107 | 33985 ft | 485 kts | 281° |
| 2026-05-04 02:07 | 53.81766 | -2.33355 | 34013 ft | 485 kts | 281° |
| 2026-05-04 02:07 | 53.82907 | -2.44622 | 34021 ft | 486 kts | 280° |
| 2026-05-04 02:08 | 53.84039 | -2.55916 | 34024 ft | 487 kts | 280° |
| 2026-05-04 02:08 | 53.85161 | -2.67220 | 34002 ft | 488 kts | 281° |
| 2026-05-04 02:09 | 53.86276 | -2.78562 | 34013 ft | 489 kts | 281° |
| 2026-05-04 02:09 | 53.87197 | -2.88021 | 34019 ft | 490 kts | 280° |
| 2026-05-04 02:10 | 53.88296 | -2.99412 | 34026 ft | 490 kts | 280° |
| 2026-05-04 02:10 | 53.89386 | -3.10830 | 34027 ft | 491 kts | 280° |
| 2026-05-04 02:11 | 53.90466 | -3.22268 | 34012 ft | 492 kts | 281° |
| 2026-05-04 02:11 | 53.91545 | -3.33741 | 34021 ft | 493 kts | 281° |
| 2026-05-04 02:12 | 53.92619 | -3.45239 | 34027 ft | 494 kts | 281° |
| 2026-05-04 02:12 | 53.94510 | -3.56342 | 34020 ft | 490 kts | 294° |
| 2026-05-04 02:13 | 53.97052 | -3.67062 | 34038 ft | 490 kts | 294° |
| 2026-05-04 02:13 | 53.99555 | -3.77713 | 34039 ft | 490 kts | 295° |
| 2026-05-04 02:14 | 54.02063 | -3.88483 | 34043 ft | 490 kts | 295° |
| 2026-05-04 02:14 | 54.04553 | -3.99268 | 34039 ft | 490 kts | 295° |
| 2026-05-04 02:15 | 54.07015 | -4.09999 | 34037 ft | 489 kts | 295° |
| 2026-05-04 02:15 | 54.09441 | -4.20632 | 34033 ft | 489 kts | 295° |
| 2026-05-04 02:16 | 54.11894 | -4.31435 | 34026 ft | 489 kts | 295° |
| 2026-05-04 02:16 | 54.14330 | -4.42218 | 34034 ft | 489 kts | 295° |
| 2026-05-04 02:17 | 54.16763 | -4.53047 | 34046 ft | 488 kts | 295° |
| 2026-05-04 02:17 | 54.19183 | -4.63873 | 34052 ft | 488 kts | 295° |
| 2026-05-04 02:18 | 54.21591 | -4.74697 | 34049 ft | 487 kts | 295° |
| 2026-05-04 02:18 | 54.23986 | -4.85522 | 34035 ft | 487 kts | 296° |
| 2026-05-04 02:19 | 54.26369 | -4.96345 | 34035 ft | 486 kts | 296° |
| 2026-05-04 02:19 | 54.28743 | -5.07184 | 34035 ft | 486 kts | 296° |
| 2026-05-04 02:20 | 54.31108 | -5.18040 | 34038 ft | 487 kts | 295° |
| 2026-05-04 02:20 | 54.33464 | -5.28911 | 34040 ft | 487 kts | 295° |
| 2026-05-04 02:21 | 54.35810 | -5.39799 | 34042 ft | 487 kts | 296° |
| 2026-05-04 02:21 | 54.38150 | -5.50712 | 34064 ft | 487 kts | 296° |
| 2026-05-04 02:22 | 54.40473 | -5.61610 | 34064 ft | 486 kts | 296° |
| 2026-05-04 02:22 | 54.42787 | -5.72517 | 34063 ft | 486 kts | 296° |
| 2026-05-04 02:23 | 54.45085 | -5.83411 | 34057 ft | 485 kts | 296° |
| 2026-05-04 02:23 | 54.47372 | -5.94308 | 34049 ft | 484 kts | 296° |
| 2026-05-04 02:24 | 54.49644 | -6.05197 | 34044 ft | 484 kts | 296° |
| 2026-05-04 02:24 | 54.51909 | -6.16101 | 34043 ft | 484 kts | 296° |
| 2026-05-04 02:25 | 54.54161 | -6.27015 | 34041 ft | 484 kts | 296° |
| 2026-05-04 02:25 | 54.56405 | -6.37939 | 34044 ft | 484 kts | 295° |
| 2026-05-04 02:26 | 54.58639 | -6.48883 | 34056 ft | 483 kts | 296° |
| 2026-05-04 02:26 | 54.60858 | -6.59822 | 34080 ft | 483 kts | 296° |
| 2026-05-04 02:27 | 54.63050 | -6.70678 | 34079 ft | 482 kts | 296° |
| 2026-05-04 02:27 | 54.65247 | -6.81618 | 34075 ft | 482 kts | 295° |
| 2026-05-04 02:28 | 54.67431 | -6.92551 | 34069 ft | 481 kts | 295° |
| 2026-05-04 02:28 | 54.69605 | -7.03494 | 34057 ft | 481 kts | 295° |
| 2026-05-04 02:29 | 54.71772 | -7.14468 | 34061 ft | 482 kts | 295° |
| 2026-05-04 02:29 | 54.73931 | -7.25459 | 34063 ft | 483 kts | 295° |
| 2026-05-04 02:30 | 54.76086 | -7.36490 | 34080 ft | 484 kts | 295° |
| 2026-05-04 02:30 | 54.78234 | -7.47558 | 34092 ft | 485 kts | 295° |
| 2026-05-04 02:31 | 54.80369 | -7.58624 | 34109 ft | 484 kts | 295° |
| 2026-05-04 02:31 | 54.82492 | -7.69690 | 34098 ft | 483 kts | 294° |
| 2026-05-04 02:32 | 54.84599 | -7.80735 | 34096 ft | 482 kts | 294° |
| 2026-05-04 02:32 | 54.86696 | -7.91786 | 34089 ft | 481 kts | 294° |
| 2026-05-04 02:33 | 54.88778 | -8.02826 | 34085 ft | 481 kts | 294° |
| 2026-05-04 02:33 | 54.90849 | -8.13871 | 34090 ft | 481 kts | 294° |
| 2026-05-04 02:34 | 54.92912 | -8.24935 | 34072 ft | 481 kts | 294° |
| 2026-05-04 02:34 | 54.94953 | -8.35951 | 34081 ft | 482 kts | 294° |
| 2026-05-04 02:35 | 54.97003 | -8.47075 | 34089 ft | 483 kts | 293° |
| 2026-05-04 02:35 | 54.99043 | -8.58220 | 34107 ft | 483 kts | 293° |
| 2026-05-04 02:36 | 55.01072 | -8.69370 | 34114 ft | 483 kts | 293° |
| 2026-05-04 02:36 | 55.03091 | -8.80528 | 34096 ft | 483 kts | 292° |
| 2026-05-04 02:37 | 55.05098 | -8.91692 | 34094 ft | 483 kts | 292° |
| 2026-05-04 02:37 | 55.07097 | -9.02876 | 34105 ft | 483 kts | 292° |
| 2026-05-04 02:38 | 55.09087 | -9.14080 | 34103 ft | 483 kts | 292° |
| 2026-05-04 02:38 | 55.11068 | -9.25302 | 34113 ft | 484 kts | 292° |
| 2026-05-04 02:39 | 55.13038 | -9.36532 | 34103 ft | 484 kts | 292° |
| 2026-05-04 02:39 | 55.14999 | -9.47783 | 34113 ft | 484 kts | 292° |
| 2026-05-04 02:40 | 55.16948 | -9.59033 | 34129 ft | 483 kts | 291° |
| 2026-05-04 02:40 | 55.18886 | -9.70290 | 34124 ft | 483 kts | 291° |
| 2026-05-04 02:41 | 55.20816 | -9.81547 | 34121 ft | 482 kts | 291° |
| 2026-05-04 02:41 | 55.22738 | -9.92792 | 34122 ft | 482 kts | 291° |
| 2026-05-04 02:42 | 55.24577 | -10.04015 | 34104 ft | 483 kts | 290° |
| 2026-05-04 02:42 | 55.26530 | -10.15245 | 34106 ft | 482 kts | 292° |
| 2026-05-04 02:43 | 55.28537 | -10.26457 | 34117 ft | 482 kts | 291° |
| 2026-05-04 02:43 | 55.30503 | -10.37725 | 34120 ft | 483 kts | 291° |
| 2026-05-04 02:44 | 55.32443 | -10.49026 | 34128 ft | 484 kts | 291° |
| 2026-05-04 02:44 | 55.34373 | -10.60350 | 34136 ft | 483 kts | 290° |
| 2026-05-04 02:45 | 55.36287 | -10.71656 | 34136 ft | 483 kts | 290° |
| 2026-05-04 02:45 | 55.38192 | -10.82977 | 34137 ft | 483 kts | 290° |
| 2026-05-04 02:46 | 55.40085 | -10.94298 | 34134 ft | 482 kts | 290° |
| 2026-05-04 02:46 | 55.41967 | -11.05629 | 34130 ft | 482 kts | 290° |
| 2026-05-04 02:47 | 55.43838 | -11.16965 | 34131 ft | 482 kts | 290° |
| 2026-05-04 02:47 | 55.45697 | -11.28302 | 34136 ft | 482 kts | 289° |
| 2026-05-04 02:48 | 55.47545 | -11.39646 | 34126 ft | 482 kts | 289° |
| 2026-05-04 02:48 | 55.49383 | -11.51006 | 34129 ft | 482 kts | 289° |
| 2026-05-04 02:49 | 55.51211 | -11.62381 | 34131 ft | 482 kts | 289° |
| 2026-05-04 02:49 | 55.53017 | -11.73693 | 34133 ft | 482 kts | 289° |
| 2026-05-04 02:50 | 55.54826 | -11.85097 | 34131 ft | 482 kts | 289° |
| 2026-05-04 02:50 | 55.56624 | -11.96511 | 34130 ft | 483 kts | 289° |
| 2026-05-04 02:51 | 55.58412 | -12.07945 | 34131 ft | 483 kts | 289° |
| 2026-05-04 02:51 | 55.60190 | -12.19388 | 34128 ft | 483 kts | 289° |
| 2026-05-04 02:52 | 55.61957 | -12.30844 | 34128 ft | 483 kts | 289° |
| 2026-05-04 02:52 | 55.63714 | -12.42306 | 34131 ft | 483 kts | 288° |
| 2026-05-04 02:53 | 55.65461 | -12.53787 | 34134 ft | 483 kts | 288° |
| 2026-05-04 02:53 | 55.67197 | -12.65276 | 34147 ft | 482 kts | 288° |
| 2026-05-04 02:54 | 55.68919 | -12.76764 | 34139 ft | 482 kts | 288° |
| 2026-05-04 02:54 | 55.70631 | -12.88254 | 34139 ft | 482 kts | 288° |
| 2026-05-04 02:55 | 55.73174 | -13.05481 | 34127 ft | 481 kts | 287° |
| 2026-05-04 02:56 | 55.74856 | -13.16975 | 34127 ft | 481 kts | 287° |
| 2026-05-04 02:56 | 55.76527 | -13.28484 | 34128 ft | 482 kts | 287° |
| 2026-05-04 02:57 | 55.78179 | -13.39939 | 34137 ft | 482 kts | 287° |
| 2026-05-04 02:57 | 55.79842 | -13.51555 | 34132 ft | 482 kts | 287° |
| 2026-05-04 02:58 | 55.81207 | -13.61159 | 34135 ft | 482 kts | 287° |
| 2026-05-04 02:58 | 55.83102 | -13.74589 | 34151 ft | 481 kts | 286° |
| 2026-05-04 02:59 | 55.84456 | -13.84261 | 34145 ft | 480 kts | 286° |
| 2026-05-04 02:59 | 55.86060 | -13.95798 | 34141 ft | 480 kts | 286° |
| 2026-05-04 03:00 | 55.87651 | -14.07324 | 34135 ft | 479 kts | 286° |
| 2026-05-04 03:00 | 55.89230 | -14.18854 | 34136 ft | 479 kts | 286° |
| 2026-05-04 03:01 | 55.90798 | -14.30384 | 34134 ft | 478 kts | 285° |
| 2026-05-04 03:01 | 55.92352 | -14.41909 | 34130 ft | 478 kts | 285° |
| 2026-05-04 03:02 | 55.93903 | -14.53484 | 34506 ft | 481 kts | 285° |
| 2026-05-04 03:02 | 55.94673 | -14.59274 | 34932 ft | 479 kts | 285° |
| 2026-05-04 03:02 | 55.95427 | -14.64967 | 35344 ft | 477 kts | 285° |
| 2026-05-04 03:02 | 55.96189 | -14.70735 | 35750 ft | 476 kts | 285° |
| 2026-05-04 03:03 | 55.96945 | -14.76481 | 36091 ft | 477 kts | 284° |
| 2026-05-04 03:03 | 55.98439 | -14.87891 | 36136 ft | 468 kts | 284° |
| 2026-05-04 03:04 | 55.99925 | -14.99216 | 36140 ft | 469 kts | 287° |
| 2026-05-04 03:04 | 56.02222 | -15.10105 | 36140 ft | 468 kts | 293° |
| 2026-05-04 03:05 | 56.04678 | -15.20888 | 36139 ft | 468 kts | 293° |
| 2026-05-04 03:05 | 56.07108 | -15.31697 | 36140 ft | 468 kts | 293° |
| 2026-05-04 03:06 | 56.09513 | -15.42515 | 36138 ft | 468 kts | 292° |
| 2026-05-04 03:06 | 56.11905 | -15.53352 | 36134 ft | 468 kts | 292° |
| 2026-05-04 03:07 | 56.14283 | -15.64184 | 36160 ft | 466 kts | 292° |
| 2026-05-04 03:07 | 56.16645 | -15.74998 | 36142 ft | 465 kts | 292° |
| 2026-05-04 03:08 | 56.18992 | -15.85799 | 36161 ft | 464 kts | 292° |
| 2026-05-04 03:08 | 56.21327 | -15.96599 | 36127 ft | 464 kts | 292° |
| 2026-05-04 03:09 | 56.23651 | -16.07408 | 36130 ft | 463 kts | 291° |
| 2026-05-04 03:09 | 56.25964 | -16.18224 | 36130 ft | 463 kts | 291° |
| 2026-05-04 03:10 | 56.28268 | -16.29052 | 36142 ft | 463 kts | 291° |
| 2026-05-04 03:10 | 56.30562 | -16.39890 | 36138 ft | 464 kts | 291° |
| 2026-05-04 03:11 | 56.32848 | -16.50751 | 36136 ft | 464 kts | 291° |
| 2026-05-04 03:11 | 56.35126 | -16.61630 | 36138 ft | 464 kts | 291° |
| 2026-05-04 03:12 | 56.37395 | -16.72527 | 36138 ft | 464 kts | 290° |
| 2026-05-04 03:12 | 56.39656 | -16.83442 | 36162 ft | 464 kts | 290° |
| 2026-05-04 03:13 | 56.41906 | -16.94365 | 36133 ft | 464 kts | 290° |
| 2026-05-04 03:13 | 56.44148 | -17.05305 | 36123 ft | 464 kts | 290° |
| 2026-05-04 03:14 | 56.46366 | -17.16194 | 36144 ft | 465 kts | 290° |
| 2026-05-04 03:14 | 56.48591 | -17.27172 | 36147 ft | 465 kts | 289° |
| 2026-05-04 03:15 | 56.50804 | -17.38154 | 36144 ft | 464 kts | 289° |
| 2026-05-04 03:15 | 56.53008 | -17.49148 | 36145 ft | 464 kts | 289° |
| 2026-05-04 03:16 | 56.55199 | -17.60144 | 36144 ft | 464 kts | 289° |
| 2026-05-04 03:16 | 56.57382 | -17.71156 | 36133 ft | 464 kts | 289° |
| 2026-05-04 03:17 | 56.59555 | -17.82186 | 36130 ft | 464 kts | 289° |
| 2026-05-04 03:17 | 56.61721 | -17.93238 | 36135 ft | 465 kts | 289° |
| 2026-05-04 03:18 | 56.63879 | -18.04314 | 36146 ft | 465 kts | 288° |
| 2026-05-04 03:18 | 56.66028 | -18.15404 | 36144 ft | 465 kts | 288° |
| 2026-05-04 03:19 | 56.68166 | -18.26502 | 36152 ft | 465 kts | 288° |
| 2026-05-04 03:19 | 56.70293 | -18.37610 | 36147 ft | 465 kts | 288° |
| 2026-05-04 03:20 | 56.72409 | -18.48724 | 36149 ft | 465 kts | 288° |
| 2026-05-04 03:20 | 56.74515 | -18.59846 | 36148 ft | 464 kts | 288° |
| 2026-05-04 03:21 | 56.76610 | -18.70977 | 36141 ft | 464 kts | 288° |
| 2026-05-04 03:21 | 56.78695 | -18.82116 | 36155 ft | 464 kts | 287° |
| 2026-05-04 03:22 | 56.80767 | -18.93260 | 36152 ft | 463 kts | 287° |
| 2026-05-04 03:22 | 56.82813 | -19.04325 | 36147 ft | 463 kts | 287° |
| 2026-05-04 03:23 | 56.84861 | -19.15468 | 36139 ft | 463 kts | 287° |
| 2026-05-04 03:23 | 56.86901 | -19.26630 | 36138 ft | 463 kts | 287° |
| 2026-05-04 03:24 | 56.88932 | -19.37807 | 36143 ft | 463 kts | 287° |
| 2026-05-04 03:24 | 56.90954 | -19.49005 | 36143 ft | 464 kts | 287° |
| 2026-05-04 03:25 | 56.92967 | -19.60223 | 36149 ft | 464 kts | 287° |
| 2026-05-04 03:25 | 56.94971 | -19.71455 | 36163 ft | 464 kts | 287° |
| 2026-05-04 03:26 | 56.96963 | -19.82686 | 36155 ft | 463 kts | 287° |
| 2026-05-04 03:26 | 56.98928 | -19.93934 | 36159 ft | 463 kts | 284° |
| 2026-05-04 03:27 | 57.00184 | -20.05484 | 36154 ft | 462 kts | 276° |
| 2026-05-04 03:27 | 57.00634 | -20.17231 | 36153 ft | 461 kts | 274° |
| 2026-05-04 03:28 | 57.01090 | -20.28976 | 36156 ft | 461 kts | 274° |
| 2026-05-04 03:28 | 57.01545 | -20.40725 | 36155 ft | 462 kts | 274° |
| 2026-05-04 03:29 | 57.01983 | -20.52475 | 36151 ft | 462 kts | 274° |
| 2026-05-04 03:29 | 57.02405 | -20.64248 | 36156 ft | 462 kts | 274° |
| 2026-05-04 03:30 | 57.02808 | -20.75954 | 36166 ft | 463 kts | 274° |
| 2026-05-04 03:30 | 57.03202 | -20.87758 | 36171 ft | 463 kts | 274° |
| 2026-05-04 03:31 | 57.03585 | -20.99568 | 36177 ft | 463 kts | 273° |
| 2026-05-04 03:31 | 57.03957 | -21.11378 | 36168 ft | 464 kts | 273° |
| 2026-05-04 03:32 | 57.04318 | -21.23195 | 36173 ft | 463 kts | 273° |
| 2026-05-04 03:32 | 57.04668 | -21.35021 | 36179 ft | 463 kts | 273° |
| 2026-05-04 03:33 | 57.05006 | -21.46831 | 36176 ft | 463 kts | 273° |
| 2026-05-04 03:33 | 57.05333 | -21.58648 | 36177 ft | 463 kts | 273° |
| 2026-05-04 03:34 | 57.05649 | -21.70463 | 36182 ft | 463 kts | 273° |
| 2026-05-04 03:34 | 57.05955 | -21.82280 | 36170 ft | 463 kts | 272° |
| 2026-05-04 03:35 | 57.06248 | -21.94103 | 36184 ft | 463 kts | 272° |
| 2026-05-04 03:35 | 57.06531 | -22.05932 | 36183 ft | 464 kts | 272° |
| 2026-05-04 03:36 | 57.06803 | -22.17775 | 36192 ft | 464 kts | 272° |
| 2026-05-04 03:36 | 57.07064 | -22.29613 | 36196 ft | 464 kts | 272° |
| 2026-05-04 03:37 | 57.07314 | -22.41456 | 36190 ft | 464 kts | 272° |
| 2026-05-04 03:37 | 57.07552 | -22.53294 | 36193 ft | 463 kts | 272° |
| 2026-05-04 03:38 | 57.07779 | -22.65131 | 36193 ft | 463 kts | 272° |
| 2026-05-04 03:38 | 57.07995 | -22.76972 | 36194 ft | 463 kts | 272° |
| 2026-05-04 03:39 | 57.08198 | -22.88732 | 36193 ft | 464 kts | 272° |
| 2026-05-04 03:39 | 57.08392 | -23.00577 | 36209 ft | 463 kts | 271° |
| 2026-05-04 03:40 | 57.08575 | -23.12420 | 36181 ft | 464 kts | 271° |
| 2026-05-04 03:40 | 57.08746 | -23.24278 | 36207 ft | 464 kts | 271° |
| 2026-05-04 03:41 | 57.08906 | -23.36126 | 36207 ft | 464 kts | 271° |